Time;durP1;ratioP1;P1;durP2;ratioP2;P2;SDS_P1;SDS_P2;PMS_P1;PMS_P2;Temp;Humidity;BMP_temperature;BMP_pressure;BME280_temperature;BME280_humidity;BME280_pressure;Samples;Min_cycle;Max_cycle;Signal;HPM_P1;HPM_P2
2021/04/15 00:00:37;;;;;;;17.87;10.82;;;;;;;19.70;32.36;99100.70;1700586;82;21203;-17
2021/04/15 00:03:17;;;;;;;;;;;;;;;19.66;32.41;99099.61;1739141;82;21532;-15
2021/04/15 00:05:46;;;;;;;17.65;11.25;;;;;;;19.64;32.44;99092.71;1735215;82;20259;-18
2021/04/15 00:08:17;;;;;;;15.95;10.53;;;;;;;19.60;32.53;99092.57;1770245;80;21239;-16
2021/04/15 00:10:49;;;;;;;18.52;11.93;;;;;;;19.57;32.55;99087.47;1738046;82;21212;-14
2021/04/15 00:13:35;;;;;;;20.05;12.20;;;;;;;19.56;32.60;99088.46;1760320;79;21207;-15
2021/04/15 00:16:05;;;;;;;20.55;11.85;;;;;;;19.54;32.61;99091.25;1796715;79;21192;-15
2021/04/15 00:18:32;;;;;;;17.75;11.20;;;;;;;19.55;32.66;99088.95;1812118;78;21509;-14
2021/04/15 00:21:04;;;;;;;18.57;11.38;;;;;;;19.55;32.67;99088.08;1797005;79;21132;-15
2021/04/15 00:23:32;;;;;;;17.95;10.65;;;;;;;19.52;32.71;99090.53;1801795;79;21106;-14
2021/04/15 00:26:01;;;;;;;19.55;11.63;;;;;;;19.53;32.74;99089.53;1766520;79;21156;-15
2021/04/15 00:28:30;;;;;;;15.08;10.82;;;;;;;19.51;32.78;99087.48;1794947;79;21183;-15
2021/04/15 00:30:57;;;;;;;18.30;11.53;;;;;;;19.51;32.75;99083.48;1782115;79;21144;-16
2021/04/15 00:33:25;;;;;;;17.85;11.15;;;;;;;19.50;32.80;99079.10;1797849;79;21225;-17
2021/04/15 00:35:54;;;;;;;19.07;11.97;;;;;;;19.49;32.84;99077.42;1739028;80;21088;-17
2021/04/15 00:38:23;;;;;;;18.50;11.93;;;;;;;19.48;32.89;99075.71;1799961;79;21191;-17
2021/04/15 00:40:52;;;;;;;21.95;12.40;;;;;;;19.48;32.91;99078.37;1798926;79;21108;-16
2021/04/15 00:43:23;;;;;;;18.57;12.75;;;;;;;19.46;32.95;99077.16;1767044;79;21145;-15
2021/04/15 00:45:52;;;;;;;20.55;12.50;;;;;;;19.45;32.98;99080.81;1765145;79;21156;-15
2021/04/15 00:48:28;;;;;;;17.95;12.00;;;;;;;19.43;33.01;99076.09;1766974;79;21149;-16
2021/04/15 00:51:12;;;;;;;17.90;12.03;;;;;;;19.41;33.06;99075.34;1787762;79;21196;-16
2021/04/15 00:53:56;;;;;;;28.75;13.53;;;;;;;19.43;33.12;99077.89;1830017;77;22860;-16
2021/04/15 00:56:25;;;;;;;18.95;12.03;;;;;;;19.38;33.15;99073.41;1807597;77;21568;-15
2021/04/15 00:58:52;;;;;;;17.15;11.53;;;;;;;19.39;33.17;99076.45;1740579;80;21197;-17
2021/04/15 01:01:21;;;;;;;20.75;11.22;;;;;;;19.39;33.19;99079.11;1724072;81;21122;-15
2021/04/15 01:03:48;;;;;;;22.05;11.97;;;;;;;19.39;33.26;99071.11;1742298;80;21181;-15
2021/04/15 01:06:17;;;;;;;18.92;11.63;;;;;;;19.39;33.27;99072.45;1738850;80;21082;-14
2021/04/15 01:08:44;;;;;;;17.87;11.90;;;;;;;19.40;33.32;99063.45;1758340;80;21674;-16
2021/04/15 01:11:45;;;;;;;22.95;11.57;;;;;;;19.39;33.34;99065.78;1723977;81;21165;-14
2021/04/15 01:14:31;;;;;;;25.35;12.10;;;;;;;19.39;33.36;99064.44;1755474;81;21137;-16
2021/04/15 01:17:16;;;;;;;21.20;11.35;;;;;;;19.38;33.38;99065.40;1693938;81;21484;-16
2021/04/15 01:20:16;;;;;;;17.27;10.95;;;;;;;19.38;33.40;99061.40;1747648;81;21131;-16
2021/04/15 01:22:52;;;;;;;18.60;11.68;;;;;;;19.38;33.42;99064.06;1753225;80;21046;-15
2021/04/15 01:25:54;;;;;;;16.25;11.12;;;;;;;19.36;33.45;99061.52;1743868;82;21210;-17
2021/04/15 01:28:39;;;;;;;19.40;11.80;;;;;;;19.36;33.48;99062.02;1734777;80;21676;-16
2021/04/15 01:31:16;;;;;;;15.88;11.18;;;;;;;19.35;33.51;99056.30;1773133;80;21180;-17
2021/04/15 01:33:56;;;;;;;17.85;10.93;;;;;;;19.33;33.54;99060.91;1764871;80;21092;-16
2021/04/15 01:36:32;;;;;;;20.60;11.08;;;;;;;19.33;33.58;99059.58;1765592;80;21135;-17
2021/04/15 01:39:12;;;;;;;20.10;11.40;;;;;;;19.31;33.59;99053.02;1774512;80;21336;-16
2021/04/15 01:41:53;;;;;;;16.65;11.28;;;;;;;19.30;33.63;99054.86;1720820;82;21135;-17
2021/04/15 01:44:42;;;;;;;21.12;12.30;;;;;;;19.31;33.64;99051.20;1737357;80;21661;-14
2021/04/15 01:47:33;;;;;;;15.85;11.45;;;;;;;19.31;33.64;99053.02;1771008;80;21148;-16
2021/04/15 01:50:07;;;;;;;19.45;11.90;;;;;;;19.29;33.63;99045.14;1728261;80;21194;-15
2021/04/15 01:52:35;;;;;;;15.63;11.03;;;;;;;19.30;33.66;99051.34;1748852;81;21230;-14
2021/04/15 01:55:27;;;;;;;17.82;11.65;;;;;;;19.28;33.67;99050.13;1734323;82;21655;-15
2021/04/15 01:58:07;;;;;;;19.32;11.45;;;;;;;19.28;33.69;99050.13;1718662;82;21185;-16
2021/04/15 02:00:37;;;;;;;19.17;11.90;;;;;;;19.29;33.70;99051.81;1714640;82;21264;-18
2021/04/15 02:03:21;;;;;;;19.25;12.18;;;;;;;19.28;33.71;99045.26;1735036;82;21582;-15
2021/04/15 02:05:58;;;;;;;17.07;12.30;;;;;;;19.27;33.71;99049.75;1691753;82;21261;-16
2021/04/15 02:08:31;;;;;;;19.42;12.33;;;;;;;19.27;33.69;99048.91;1733479;82;21124;-15
2021/04/15 02:11:09;;;;;;;;;;;;;;;19.27;33.68;99047.58;1721645;82;21170;-15
2021/04/15 02:13:38;;;;;;;;;;;;;;;19.26;33.74;99045.87;1695977;83;20580;-16
2021/04/15 02:16:07;;;;;;;24.02;13.25;;;;;;;19.24;33.77;99041.15;1717974;82;20230;-17
2021/04/15 02:18:43;;;;;;;27.13;13.65;;;;;;;19.20;33.77;99041.88;1722165;82;21217;-15
2021/04/15 02:21:28;;;;;;;19.30;12.20;;;;;;;19.18;33.81;99038.48;1763984;80;21156;-15
2021/04/15 02:24:01;;;;;;;20.80;13.43;;;;;;;19.17;33.83;99036.78;1757682;80;21182;-16
2021/04/15 02:26:38;;;;;;;16.23;11.28;;;;;;;19.15;33.83;99030.72;1781040;80;21586;-16
2021/04/15 02:29:21;;;;;;;18.05;11.83;;;;;;;19.18;33.81;99033.61;1773529;79;21832;-17
2021/04/15 02:32:09;;;;;;;21.27;13.70;;;;;;;19.18;33.83;99030.95;1747528;81;21263;-16
2021/04/15 02:34:46;;;;;;;18.85;12.82;;;;;;;19.18;33.87;99036.28;1775113;80;21124;-17
2021/04/15 02:37:18;;;;;;;22.62;12.28;;;;;;;19.16;33.89;99033.73;1752589;80;21532;-18
2021/04/15 02:39:51;;;;;;;23.00;12.93;;;;;;;19.16;33.94;99033.73;1747971;80;21129;-17
2021/04/15 02:42:25;;;;;;;19.93;12.93;;;;;;;19.16;33.97;99027.06;1774886;80;21172;-17
2021/04/15 02:45:04;;;;;;;20.20;11.93;;;;;;;19.15;34.00;99029.39;1769511;80;21189;-17
2021/04/15 02:47:42;;;;;;;19.12;12.63;;;;;;;19.13;34.03;99028.63;1711162;80;21229;-17
2021/04/15 02:50:13;;;;;;;26.68;13.93;;;;;;;19.12;34.03;99030.95;1733943;81;21215;-16
2021/04/15 02:52:44;;;;;;;19.52;12.55;;;;;;;19.10;34.05;99025.73;1694033;83;21154;-16
2021/04/15 02:55:15;;;;;;;16.95;11.90;;;;;;;19.09;34.06;99024.52;1774011;80;21143;-20
2021/04/15 02:57:53;;;;;;;22.22;12.15;;;;;;;19.08;34.08;99033.02;1760417;80;21197;-15
2021/04/15 03:00:25;;;;;;;14.63;10.18;;;;;;;19.07;34.13;99027.30;1754235;80;21784;-15
2021/04/15 03:03:03;;;;;;;23.20;10.58;;;;;;;19.11;35.24;99032.78;1733165;80;21195;-15
2021/04/15 03:05:36;;;;;;;34.30;10.05;;;;;;;19.18;37.55;99037.16;1748434;80;21164;-16
2021/04/15 03:08:20;;;;;;;51.05;29.15;;;;;;;19.30;36.69;99025.52;1825000;77;22789;-17
2021/04/15 03:11:01;;;;;;;46.33;20.40;;;;;;;19.27;36.44;99029.75;1807140;77;21168;-15
2021/04/15 03:13:32;;;;;;;30.17;16.97;;;;;;;19.26;37.09;99024.03;1794828;79;21225;-15
2021/04/15 03:16:04;;;;;;;37.65;15.20;;;;;;;19.31;37.45;99020.52;1791561;77;21573;-15
2021/04/15 03:19:01;;;;;;;27.35;13.88;;;;;;;19.36;37.62;99023.33;1790611;77;21402;-16
2021/04/15 03:21:45;;;;;;;22.50;13.53;;;;;;;19.42;37.72;99027.70;1802495;78;21030;-14
2021/04/15 03:24:24;;;;;;;21.17;12.47;;;;;;;19.51;37.93;99027.45;1694576;82;21038;-16
2021/04/15 03:27:15;;;;;;;19.55;11.88;;;;;;;19.57;37.99;99020.76;1747410;80;21205;-16
2021/04/15 03:29:54;;;;;;;16.10;11.30;;;;;;;19.63;37.79;99024.28;1749417;80;21210;-15
2021/04/15 03:32:36;;;;;;;15.80;11.35;;;;;;;19.70;37.69;99031.31;1729273;81;21134;-15
2021/04/15 03:35:34;;;;;;;17.65;10.38;;;;;;;19.74;37.65;99022.11;1753239;81;21172;-16
2021/04/15 03:38:14;;;;;;;21.30;10.63;;;;;;;19.79;37.65;99023.45;1718251;82;21153;-16
2021/04/15 03:40:53;;;;;;;16.35;10.40;;;;;;;19.86;37.55;99021.13;1751908;79;21214;-16
2021/04/15 03:43:36;;;;;;;16.60;10.15;;;;;;;19.91;37.38;99022.10;1727431;80;21158;-15
2021/04/15 03:46:36;;;;;;;17.35;9.80;;;;;;;19.95;37.23;99028.38;1773497;79;21734;-16
2021/04/15 03:49:24;;;;;;;19.67;10.72;;;;;;;19.98;37.30;99028.14;1751142;79;21735;-18
2021/04/15 03:52:00;;;;;;;16.62;10.30;;;;;;;20.02;37.12;99034.94;1752760;79;21200;-15
2021/04/15 03:54:39;;;;;;;;;;;;;;;20.08;36.81;99035.41;1723596;82;21207;-15
2021/04/15 03:57:10;;;;;;;16.02;10.28;;;;;;;20.12;36.59;99035.51;1747332;80;20790;-15
2021/04/15 03:59:52;;;;;;;13.83;9.95;;;;;;;20.15;36.50;99037.94;1711251;82;21158;-16
2021/04/15 04:02:29;;;;;;;14.05;9.30;;;;;;;20.17;36.50;99038.65;1714071;81;21185;-15
2021/04/15 04:05:00;;;;;;;14.68;9.45;;;;;;;20.19;36.60;99038.03;1740899;80;21209;-14
2021/04/15 04:07:39;;;;;;;15.88;9.93;;;;;;;20.20;36.45;99037.06;1737428;81;21348;-16
2021/04/15 04:10:16;;;;;;;16.25;11.20;;;;;;;20.22;36.39;99037.78;1789802;79;21143;-16
2021/04/15 04:12:58;;;;;;;15.15;10.45;;;;;;;20.24;36.30;99042.53;1795309;79;21191;-15
2021/04/15 04:15:29;;;;;;;15.90;10.68;;;;;;;20.27;36.30;99043.59;1788543;78;21197;-15
2021/04/15 04:18:08;;;;;;;19.12;11.78;;;;;;;20.27;36.28;99040.92;1755702;78;21176;-15
2021/04/15 04:20:36;;;;;;;18.12;10.68;;;;;;;20.30;36.02;99043.84;1790072;78;21204;-15
2021/04/15 04:23:39;;;;;;;27.05;11.78;;;;;;;20.31;36.09;99047.72;1779182;79;21141;-14
2021/04/15 04:26:18;;;;;;;17.62;11.65;;;;;;;20.32;36.04;99045.39;1767671;77;21217;-15
2021/04/15 04:29:06;;;;;;;21.17;11.05;;;;;;;20.35;36.06;99050.98;1756725;79;21495;-16
2021/04/15 04:31:38;;;;;;;15.70;10.32;;;;;;;20.36;36.05;99044.19;1779360;79;21156;-14
2021/04/15 04:34:05;;;;;;;18.23;11.60;;;;;;;20.38;36.18;99039.55;1770219;80;21185;-14
2021/04/15 04:36:35;;;;;;;22.90;12.60;;;;;;;20.39;36.26;99042.59;1775199;79;21275;-14
2021/04/15 04:39:04;;;;;;;19.23;11.93;;;;;;;20.43;36.20;99043.69;1800736;79;21115;-14
2021/04/15 04:42:04;;;;;;;20.10;12.05;;;;;;;20.46;36.21;99042.06;1785997;79;21125;-14
2021/04/15 04:44:42;;;;;;;16.67;11.08;;;;;;;20.48;36.14;99046.82;1795084;79;21181;-16
2021/04/15 04:47:50;;;;;;;18.20;11.73;;;;;;;20.50;36.12;99052.38;1793716;79;21263;-13
2021/04/15 04:50:43;;;;;;;14.35;10.15;;;;;;;20.53;36.09;99052.12;1772340;79;21159;-14
2021/04/15 04:53:29;;;;;;;17.52;10.50;;;;;;;20.57;36.09;99050.88;1785161;79;21182;-17
2021/04/15 04:56:15;;;;;;;25.77;10.63;;;;;;;20.60;36.14;99046.63;1777422;79;21164;-16
2021/04/15 04:58:48;;;;;;;;;;;;;;;20.63;36.24;99044.23;1783577;79;21159;-16
2021/04/15 05:01:15;;;;;;;16.57;10.13;;;;;;;20.66;36.19;99046.65;1779754;79;21194;-16
2021/04/15 05:03:43;;;;;;;16.05;9.73;;;;;;;20.69;36.14;99043.69;1782491;79;21110;-16
2021/04/15 05:06:21;;;;;;;15.35;9.83;;;;;;;20.72;36.23;99040.77;1779540;78;21110;-17
2021/04/15 05:09:25;;;;;;;12.65;9.65;;;;;;;20.77;36.16;99039.89;1767552;79;21169;-16
2021/04/15 05:11:52;;;;;;;15.03;10.45;;;;;;;20.82;36.07;99041.34;1774392;79;21165;-15
2021/04/15 05:14:22;;;;;;;18.80;9.98;;;;;;;20.86;35.96;99047.61;1786705;77;21205;-18
2021/04/15 05:17:19;;;;;;;16.82;11.05;;;;;;;20.89;35.94;99046.52;1807923;77;21116;-16
2021/04/15 05:19:49;;;;;;;18.87;10.15;;;;;;;20.92;35.70;99044.92;1789161;77;21152;-18
2021/04/15 05:22:36;;;;;;;17.95;11.15;;;;;;;20.96;35.71;99043.20;1788684;77;21113;-16
2021/04/15 05:25:13;;;;;;;17.95;10.58;;;;;;;21.00;35.62;99038.44;1796450;77;21547;-17
2021/04/15 05:27:40;;;;;;;20.95;11.90;;;;;;;21.04;35.69;99037.67;1789508;79;21470;-15
2021/04/15 05:30:22;;;;;;;18.92;10.70;;;;;;;21.06;35.65;99035.21;1791812;79;21137;-16
2021/04/15 05:32:50;;;;;;;21.48;10.48;;;;;;;21.10;35.73;99042.02;1796809;79;21205;-17
2021/04/15 05:35:21;;;;;;;15.75;10.20;;;;;;;21.13;35.73;99035.06;1773866;79;21145;-17
2021/04/15 05:37:54;;;;;;;15.83;9.88;;;;;;;21.17;35.86;99038.31;1762522;79;21153;-16
2021/04/15 05:40:21;;;;;;;23.25;10.90;;;;;;;21.20;35.83;99043.88;1797272;79;21141;-15
2021/04/15 05:42:57;;;;;;;17.35;10.40;;;;;;;21.23;35.72;99044.95;1801748;79;21082;-19
2021/04/15 05:45:34;;;;;;;18.67;10.00;;;;;;;21.28;35.81;99042.73;1815105;78;22533;-20
2021/04/15 05:48:07;;;;;;;17.55;11.12;;;;;;;21.26;35.75;99035.33;1784100;79;21143;-20
2021/04/15 05:50:43;;;;;;;17.25;10.78;;;;;;;21.26;35.70;99033.99;1767532;79;22039;-20
2021/04/15 05:53:18;;;;;;;18.12;10.28;;;;;;;21.29;35.64;99039.08;1758179;81;21143;-20
2021/04/15 05:55:54;;;;;;;18.55;10.30;;;;;;;21.28;35.51;99032.89;1773667;79;21022;-20
2021/04/15 05:58:39;;;;;;;17.30;10.48;;;;;;;21.33;35.43;99039.16;1800334;79;21230;-21
2021/04/15 06:01:14;;;;;;;21.42;10.53;;;;;;;21.35;35.49;99030.53;1774848;79;21152;-23
2021/04/15 06:03:57;;;;;;;14.83;10.70;;;;;;;21.38;35.42;99028.90;1800084;79;22378;-20
2021/04/15 06:06:30;;;;;;;20.92;12.15;;;;;;;21.41;35.29;99031.31;1799939;79;22180;-20
2021/04/15 06:09:00;;;;;;;17.70;10.50;;;;;;;21.45;35.29;99033.23;1774220;78;21041;-19
2021/04/15 06:11:47;;;;;;;15.23;9.85;;;;;;;21.48;35.35;99031.66;1767574;77;21183;-21
2021/04/15 06:14:29;;;;;;;21.05;10.25;;;;;;;21.54;35.40;99032.97;1758538;77;21675;-19
2021/04/15 06:17:24;;;;;;;19.80;9.88;;;;;;;21.58;35.31;99031.70;1778561;79;21156;-19
2021/04/15 06:19:56;;;;;;;18.90;10.50;;;;;;;21.61;35.40;99036.79;1745994;80;21205;-19
2021/04/15 06:22:26;;;;;;;19.23;10.43;;;;;;;21.65;35.50;99026.15;1761813;80;21187;-19
2021/04/15 06:25:04;;;;;;;20.43;10.30;;;;;;;21.69;35.44;99034.28;1757273;79;21203;-20
2021/04/15 06:27:32;;;;;;;27.80;10.93;;;;;;;21.72;35.49;99035.36;1792514;79;21215;-21
2021/04/15 06:30:19;;;;;;;19.50;11.48;;;;;;;21.79;35.54;99039.17;1768684;79;21153;-19
2021/04/15 06:32:59;;;;;;;23.75;12.82;;;;;;;21.83;35.44;99036.56;1776096;79;21255;-19
2021/04/15 06:35:33;;;;;;;23.98;13.88;;;;;;;21.87;35.39;99035.32;1800353;79;21184;-18
2021/04/15 06:38:06;;;;;;;27.00;14.83;;;;;;;21.86;34.51;99030.94;1769462;79;21569;-20
2021/04/15 06:40:48;;;;;;;30.45;15.88;;;;;;;21.71;34.86;99032.31;1717591;82;21201;-19
2021/04/15 06:43:38;;;;;;;27.70;16.02;;;;;;;21.56;34.68;99033.67;1700473;82;21952;-19
2021/04/15 06:46:18;;;;;;;30.52;16.70;;;;;;;21.44;35.21;99036.41;1725683;80;21203;-19
2021/04/15 06:49:07;;;;;;;26.97;15.93;;;;;;;21.36;35.22;99035.38;1716730;82;21538;-19
2021/04/15 06:51:55;;;;;;;36.00;15.25;;;;;;;21.26;35.36;99028.64;1695683;82;21212;-18
2021/04/15 06:55:02;;;;;;;23.87;14.20;;;;;;;21.17;35.48;99032.13;1734822;82;21185;-18
2021/04/15 06:58:07;;;;;;;24.52;14.73;;;;;;;21.11;35.49;99036.16;1732763;82;21580;-18
2021/04/15 07:01:00;;;;;;;27.87;14.30;;;;;;;21.02;35.74;99028.45;1707803;82;21647;-18
2021/04/15 07:04:04;;;;;;;20.43;13.60;;;;;;;20.98;35.62;99033.71;1729114;82;21189;-18
2021/04/15 07:06:46;;;;;;;23.07;14.10;;;;;;;20.94;36.24;99028.25;1732090;82;21167;-18
2021/04/15 07:09:39;;;;;;;21.15;12.73;;;;;;;20.98;36.17;99033.71;1721156;82;21141;-18
2021/04/15 07:12:42;;;;;;;28.90;13.03;;;;;;;21.01;35.92;99032.09;1732841;81;22016;-20
2021/04/15 07:15:51;;;;;;;26.87;14.33;;;;;;;21.03;36.18;99036.84;1732593;80;21205;-20
2021/04/15 07:18:58;;;;;;;23.75;14.15;;;;;;;21.05;35.36;99034.88;1689300;82;21247;-20
2021/04/15 07:21:54;;;;;;;20.97;13.68;;;;;;;20.99;35.08;99039.90;1729489;80;21192;-16
2021/04/15 07:24:53;;;;;;;23.30;13.50;;;;;;;20.87;35.08;99039.13;1693898;83;21672;-15
2021/04/15 07:27:36;;;;;;;26.37;14.07;;;;;;;20.78;35.36;99037.58;1703607;82;21165;-16
2021/04/15 07:30:52;;;;;;;23.15;13.53;;;;;;;20.71;35.46;99036.41;1687340;83;21240;-16
2021/04/15 07:33:34;;;;;;;22.82;13.03;;;;;;;20.69;35.61;99041.02;1724972;80;21141;-16
2021/04/15 07:36:36;;;;;;;22.87;14.30;;;;;;;20.66;35.71;99038.63;1738137;81;21248;-16
2021/04/15 07:39:31;;;;;;;19.92;12.33;;;;;;;20.66;35.61;99041.30;1750729;81;21198;-15
2021/04/15 07:42:25;;;;;;;19.57;13.50;;;;;;;20.70;35.48;99040.05;1740489;81;21220;-17
2021/04/15 07:45:03;;;;;;;20.72;12.20;;;;;;;20.78;35.16;99046.94;1714149;81;21217;-16
2021/04/15 07:48:08;;;;;;;20.77;11.78;;;;;;;20.86;35.60;99040.09;1718487;81;21184;-16
2021/04/15 07:51:21;;;;;;;17.07;11.48;;;;;;;21.00;35.88;99041.58;1733250;82;21208;-17
2021/04/15 07:54:16;;;;;;;19.70;11.88;;;;;;;21.20;36.12;99038.53;1693530;82;21176;-16
2021/04/15 07:57:34;;;;;;;22.25;12.23;;;;;;;21.37;35.91;99037.92;1709129;82;21376;-16
2021/04/15 08:00:11;;;;;;;20.05;11.22;;;;;;;21.50;35.38;99037.25;1739927;81;22272;-15
2021/04/15 08:03:23;;;;;;;22.48;12.47;;;;;;;21.56;35.28;99036.34;1736166;81;21176;-16
2021/04/15 08:05:59;;;;;;;19.70;11.48;;;;;;;21.64;35.35;99033.84;1747788;79;21184;-15
2021/04/15 08:09:20;;;;;;;24.35;12.40;;;;;;;21.76;35.37;99034.08;1773414;79;21607;-15
2021/04/15 08:12:33;;;;;;;22.87;11.68;;;;;;;21.84;35.42;99037.44;1791476;79;21461;-17
2021/04/15 08:15:36;;;;;;;21.05;10.78;;;;;;;21.94;35.32;99027.59;1789045;78;21176;-15
2021/04/15 08:18:19;;;;;;;19.10;11.30;;;;;;;22.03;35.48;99029.42;1778511;79;21582;-16
2021/04/15 08:21:15;;;;;;;20.65;11.78;;;;;;;22.12;34.76;99030.41;1786649;78;21160;-16
2021/04/15 08:23:48;;;;;;;19.07;11.28;;;;;;;22.15;34.45;99031.48;1757634;79;21200;-15
2021/04/15 08:27:07;;;;;;;17.07;10.80;;;;;;;22.19;34.78;99028.03;1773647;79;21640;-16
2021/04/15 08:30:08;;;;;;;21.85;10.15;;;;;;;22.22;35.01;99025.91;1779699;79;21226;-16
2021/04/15 08:32:48;;;;;;;22.17;10.65;;;;;;;22.31;35.06;99026.09;1768257;78;21212;-16
2021/04/15 08:35:55;;;;;;;18.42;10.65;;;;;;;22.42;35.28;99020.61;1787145;79;21156;-17
2021/04/15 08:38:37;;;;;;;18.27;10.25;;;;;;;22.56;35.41;99026.89;1742765;81;21184;-16
2021/04/15 08:41:35;;;;;;;17.87;10.08;;;;;;;22.75;35.38;99023.84;1777232;79;21192;-16
2021/04/15 08:44:16;;;;;;;23.02;9.50;;;;;;;22.91;35.22;99025.42;1728630;78;21234;-17
2021/04/15 08:47:09;;;;;;;16.90;9.10;;;;;;;23.09;35.00;99018.02;1787388;79;21663;-16
2021/04/15 08:50:37;;;;;;;13.80;8.60;;;;;;;23.23;34.81;99014.02;1748712;79;21217;-16
2021/04/15 08:53:40;;;;;;;14.60;9.18;;;;;;;23.36;34.64;99015.37;1775317;79;21208;-17
2021/04/15 08:56:16;;;;;;;12.75;8.53;;;;;;;23.53;34.45;99008.88;1794334;79;22384;-18
2021/04/15 08:59:00;;;;;;;9.78;7.87;;;;;;;23.66;34.25;99009.38;1775081;78;21625;-17
2021/04/15 09:01:54;;;;;;;13.35;8.15;;;;;;;23.79;34.08;99009.03;1772703;79;22283;-17
2021/04/15 09:04:54;;;;;;;15.32;9.30;;;;;;;23.91;33.94;99001.64;1766178;79;21247;-17
2021/04/15 09:07:41;;;;;;;13.08;9.40;;;;;;;24.02;32.40;99003.26;1777192;79;21684;-16
2021/04/15 09:10:56;;;;;;;15.10;9.25;;;;;;;24.02;31.85;98996.54;1741179;79;21184;-17
2021/04/15 09:14:04;;;;;;;12.10;7.72;;;;;;;23.99;31.61;98996.84;1728065;79;21236;-14
2021/04/15 09:16:46;;;;;;;10.32;7.70;;;;;;;23.94;31.26;99000.00;1780640;79;21185;-17
2021/04/15 09:19:50;;;;;;;9.30;7.72;;;;;;;23.90;31.24;98994.56;1763976;79;28472;-17
2021/04/15 09:22:52;;;;;;;13.18;8.18;;;;;;;23.84;29.74;98995.16;1770928;79;21621;-16
2021/04/15 09:25:53;;;;;;;11.60;8.43;;;;;;;23.66;29.44;98986.55;1705096;79;21198;-17
2021/04/15 09:29:14;;;;;;;13.80;7.85;;;;;;;23.46;29.76;98990.34;1781672;79;22348;-17
2021/04/15 09:31:54;;;;;;;12.30;7.33;;;;;;;23.30;30.36;98986.45;1769932;79;21226;-16
2021/04/15 09:34:42;;;;;;;11.28;7.72;;;;;;;23.26;30.58;98982.36;1774311;79;22324;-17
2021/04/15 09:37:58;;;;;;;30.48;7.87;;;;;;;23.25;30.44;98981.16;1756056;79;21451;-16
2021/04/15 09:40:58;;;;;;;10.80;8.15;;;;;;;23.22;30.51;98978.28;1743055;79;21178;-15
2021/04/15 09:43:50;;;;;;;8.93;7.03;;;;;;;23.15;29.62;98981.22;1781165;79;21252;-16
2021/04/15 09:46:41;;;;;;;11.65;7.17;;;;;;;23.08;29.87;98976.06;1780257;78;20986;-17
2021/04/15 09:49:38;;;;;;;13.43;8.25;;;;;;;23.02;29.62;98975.30;1771806;79;21192;-16
2021/04/15 09:52:44;;;;;;;7.83;7.03;;;;;;;22.96;29.67;98973.55;1771946;79;21169;-15
2021/04/15 09:55:20;;;;;;;10.78;7.28;;;;;;;22.93;29.88;98967.13;1735224;81;21318;-16
2021/04/15 09:58:14;;;;;;;13.15;7.80;;;;;;;22.95;30.01;98971.01;1775711;79;21208;-15
2021/04/15 10:00:51;;;;;;;8.05;6.87;;;;;;;22.96;30.09;98973.55;1744402;80;21755;-17
2021/04/15 10:03:55;;;;;;;9.98;6.85;;;;;;;22.94;29.71;98972.83;1756852;79;21185;-17
2021/04/15 10:06:34;;;;;;;19.48;7.15;;;;;;;22.93;29.82;98969.81;1772508;79;21180;-15
2021/04/15 10:09:21;;;;;;;11.55;6.45;;;;;;;22.94;30.31;98971.48;1756342;79;21464;-15
2021/04/15 10:12:14;;;;;;;14.25;8.35;;;;;;;22.98;30.37;98967.53;1787909;79;21646;-16
2021/04/15 10:14:57;;;;;;;21.40;10.00;;;;;;;22.95;29.64;98970.50;1787581;78;21220;-15
2021/04/15 10:23:01;;;;;;;14.38;9.28;;;;;;;22.82;29.75;98972.16;1787199;78;21225;-15
2021/04/15 10:25:39;;;;;;;11.55;7.50;;;;;;;22.87;29.86;98971.72;1777396;78;21651;-16
2021/04/15 10:29:00;;;;;;;12.63;8.28;;;;;;;22.93;30.31;98968.47;1782618;78;21236;-16
2021/04/15 10:31:42;;;;;;;12.23;7.50;;;;;;;23.00;29.92;98962.86;1776866;79;21188;-16
2021/04/15 10:34:21;;;;;;;9.63;7.97;;;;;;;23.06;30.26;98967.30;1772381;79;21181;-17
2021/04/15 10:36:56;;;;;;;14.23;8.63;;;;;;;23.14;30.71;98972.30;1769028;79;21193;-16
2021/04/15 10:39:40;;;;;;;13.32;8.30;;;;;;;23.22;30.92;98971.58;1769264;79;21160;-17
2021/04/15 10:42:49;;;;;;;11.93;8.20;;;;;;;23.29;31.37;98967.30;1799352;78;21195;-15
2021/04/15 10:45:36;;;;;;;10.63;8.55;;;;;;;23.40;31.97;98967.59;1782178;78;21192;-17
2021/04/15 10:48:38;;;;;;;21.97;9.40;;;;;;;23.49;31.09;98962.69;1789591;78;21669;-15
2021/04/15 10:51:12;;;;;;;104.90;42.95;;;;;;;23.51;31.87;98958.52;1786929;79;21117;-17
2021/04/15 10:53:53;;;;;;;25.95;14.83;;;;;;;23.55;31.17;98958.07;1772270;79;21204;-17
2021/04/15 10:56:28;;;;;;;19.65;11.95;;;;;;;23.56;30.32;98963.77;1775696;79;21186;-18
2021/04/15 10:59:09;;;;;;;18.98;11.80;;;;;;;23.54;29.49;98956.37;1773027;79;21143;-17
2021/04/15 11:01:42;;;;;;;11.90;9.35;;;;;;;23.50;29.46;98964.87;1741461;81;21243;-16
2021/04/15 11:04:17;;;;;;;17.50;9.35;;;;;;;23.46;29.28;98962.14;1773545;79;21087;-16
2021/04/15 11:07:09;;;;;;;12.98;8.60;;;;;;;23.41;29.40;98963.09;1783578;78;21752;-17
2021/04/15 11:09:44;;;;;;;15.78;8.63;;;;;;;23.38;28.60;98960.19;1777371;78;21233;-16
2021/04/15 11:12:23;;;;;;;16.23;8.80;;;;;;;23.30;28.90;98963.64;1793355;78;21185;-17
2021/04/15 11:14:55;;;;;;;9.65;7.37;;;;;;;23.24;29.41;98962.88;1783030;78;21193;-17
2021/04/15 11:17:42;;;;;;;11.45;7.67;;;;;;;23.19;28.19;98961.13;1776323;78;21178;-16
2021/04/15 11:20:16;;;;;;;13.78;8.75;;;;;;;23.11;28.75;98963.20;1711036;82;21278;-17
2021/04/15 11:23:09;;;;;;;8.55;7.33;;;;;;;23.10;28.82;98949.92;1771883;79;21201;-17
2021/04/15 11:25:49;;;;;;;14.30;7.72;;;;;;;23.11;28.82;98957.83;1796274;79;21137;-17
2021/04/15 11:28:24;;;;;;;9.68;7.85;;;;;;;23.09;28.52;98954.96;1774414;79;22184;-16
2021/04/15 11:30:59;;;;;;;10.98;7.83;;;;;;;23.00;28.26;98952.64;1796132;79;21153;-18
2021/04/15 11:33:51;;;;;;;11.38;7.90;;;;;;;22.88;28.50;98949.76;1754949;79;21213;-17
2021/04/15 11:36:28;;;;;;;8.70;7.22;;;;;;;22.80;28.44;98958.55;1779180;79;21166;-18
2021/04/15 11:39:09;;;;;;;10.00;7.30;;;;;;;22.75;28.76;98961.66;1776331;79;21476;-18
2021/04/15 11:41:57;;;;;;;10.70;7.03;;;;;;;22.71;29.23;98961.61;1779128;79;21169;-19
2021/04/15 11:44:45;;;;;;;19.37;7.92;;;;;;;22.70;29.59;98964.44;1791707;78;21204;-19
2021/04/15 11:47:29;;;;;;;25.27;10.60;;;;;;;22.77;30.51;98964.20;1826080;77;23765;-17
2021/04/15 11:50:15;;;;;;;25.48;16.90;;;;;;;22.70;30.39;98968.45;1712346;82;21195;-18
2021/04/15 11:52:46;;;;;;;26.70;14.58;;;;;;;22.59;30.91;98977.02;1744485;81;21243;-18
2021/04/15 11:55:32;;;;;;;20.20;11.33;;;;;;;22.48;31.49;98977.16;1731791;80;21214;-17
2021/04/15 11:58:05;;;;;;;27.75;17.57;;;;;;;22.42;31.91;98980.40;1705592;82;21686;-17
2021/04/15 12:00:36;;;;;;;31.93;15.77;;;;;;;22.36;32.41;98979.14;1755923;80;21230;-18
2021/04/15 12:03:16;;;;;;;26.90;15.08;;;;;;;22.33;32.54;98973.23;1761646;80;21214;-17
2021/04/15 12:05:46;;;;;;;29.77;16.17;;;;;;;22.43;32.59;98982.11;1762692;80;22248;-17
2021/04/15 12:08:34;;;;;;;30.50;16.55;;;;;;;22.55;32.65;98976.94;1750483;80;21092;-17
2021/04/15 12:11:14;;;;;;;32.25;16.93;;;;;;;22.73;32.75;98978.88;1733819;81;21148;-17
2021/04/15 12:13:56;;;;;;;32.00;16.27;;;;;;;22.89;32.83;98971.08;1737492;82;21661;-18
2021/04/15 12:16:54;;;;;;;32.75;16.30;;;;;;;23.07;32.93;98975.23;1764415;78;21233;-16
2021/04/15 12:20:01;;;;;;;36.13;16.65;;;;;;;23.22;33.01;98971.58;1742237;81;21252;-17
2021/04/15 12:22:32;;;;;;;;;;;;;;;23.39;33.04;98966.43;1762763;79;21221;-17
2021/04/15 12:25:27;;;;;;;34.13;16.82;;;;;;;23.55;33.11;98967.95;1762709;80;20321;-17
2021/04/15 12:28:12;;;;;;;43.52;18.12;;;;;;;23.65;33.13;98967.39;1770418;80;21210;-18
2021/04/15 12:30:40;;;;;;;39.18;17.07;;;;;;;23.79;33.14;98971.43;1742767;81;21173;-18
2021/04/15 12:33:26;;;;;;;36.80;16.45;;;;;;;23.90;33.13;98958.30;1724435;82;21205;-17
2021/04/15 12:36:20;;;;;;;44.70;17.55;;;;;;;24.00;33.11;98961.76;1748774;80;21211;-18
2021/04/15 12:38:58;;;;;;;39.60;17.37;;;;;;;24.10;33.02;98957.15;1721800;80;22558;-18
2021/04/15 12:41:28;;;;;;;30.90;15.83;;;;;;;24.20;32.92;98956.24;1752444;80;21240;-17